createdAt,value
2023-05-11T00:02:40.522Z,11.66
2023-05-11T00:05:42.409Z,11.67
2023-05-11T00:08:43.836Z,11.72
2023-05-11T00:11:45.364Z,11.78
2023-05-11T00:14:46.951Z,11.69
2023-05-11T00:17:48.530Z,11.44
2023-05-11T00:20:50.231Z,11.38
2023-05-11T00:23:51.762Z,11.23
2023-05-11T00:26:53.174Z,11.30
2023-05-11T00:29:54.846Z,10.99
2023-05-11T00:32:56.309Z,10.96
2023-05-11T00:35:58.215Z,10.62
2023-05-11T00:39:00.039Z,10.50
2023-05-11T00:42:01.578Z,10.63
2023-05-11T00:45:03.223Z,11.22
2023-05-11T00:48:06.241Z,11.19
2023-05-11T00:51:07.872Z,11.46
2023-05-11T00:54:15.149Z,11.59
2023-05-11T00:57:17.234Z,11.52
2023-05-11T01:00:19.325Z,11.55
2023-05-11T01:03:21.185Z,11.69
2023-05-11T01:06:29.435Z,11.75
2023-05-11T01:09:46.136Z,11.80
2023-05-11T01:13:09.471Z,11.82
2023-05-11T01:16:24.309Z,11.64
2023-05-11T01:20:07.380Z,11.57
2023-05-11T01:23:46.452Z,11.59
2023-05-11T01:27:26.139Z,11.58
2023-05-11T01:30:51.340Z,11.31
2023-05-11T01:34:01.135Z,11.35
2023-05-11T01:37:10.413Z,11.10
2023-05-11T01:40:16.020Z,11.51
2023-05-11T01:43:21.875Z,11.57
2023-05-11T01:46:26.362Z,11.10
2023-05-11T01:49:29.764Z,11.29
2023-05-11T01:52:32.089Z,11.53
2023-05-11T01:55:36.062Z,11.43
2023-05-11T01:58:40.042Z,11.50
2023-05-11T02:01:41.761Z,11.39
2023-05-11T02:04:44.834Z,11.43
2023-05-11T02:07:49.960Z,11.47
2023-05-11T02:10:53.189Z,11.41
2023-05-11T02:13:56.801Z,11.40
2023-05-11T02:16:58.768Z,11.46
2023-05-11T02:20:03.688Z,11.11
2023-05-11T02:23:08.946Z,10.72
2023-05-11T02:26:12.202Z,10.38
2023-05-11T02:29:13.672Z,10.28
2023-05-11T02:32:18.169Z,10.39
2023-05-11T02:35:37.368Z,10.50
2023-05-11T02:38:40.033Z,10.41
2023-05-11T02:41:45.993Z,10.34
2023-05-11T02:44:57.907Z,10.22
2023-05-11T02:48:03.571Z,10.41
2023-05-11T02:51:08.401Z,10.26
2023-05-11T02:54:15.949Z,10.23
2023-05-11T02:57:23.047Z,10.58
2023-05-11T03:00:24.892Z,10.82
2023-05-11T03:03:27.055Z,10.86
2023-05-11T03:06:28.659Z,10.52
2023-05-11T03:09:30.551Z,10.88
2023-05-11T03:12:34.469Z,11.14
2023-05-11T03:15:37.933Z,11.25
2023-05-11T03:18:40.516Z,11.24
2023-05-11T03:21:42.745Z,11.31
2023-05-11T03:24:44.546Z,11.30
2023-05-11T03:27:46.933Z,11.35
2023-05-11T03:30:52.700Z,11.35
2023-05-11T03:33:54.579Z,11.16
2023-05-11T03:36:58.149Z,11.29
2023-05-11T03:40:01.207Z,11.07
2023-05-11T03:43:16.782Z,11.21
2023-05-11T03:46:21.535Z,11.23
2023-05-11T03:49:24.424Z,11.19
2023-05-11T03:52:26.554Z,11.24
2023-05-11T03:55:28.134Z,11.18
2023-05-11T03:58:30.586Z,11.12
2023-05-11T04:01:32.802Z,11.04
2023-05-11T04:04:34.408Z,11.01
2023-05-11T04:07:37.365Z,11.18
2023-05-11T04:10:38.821Z,11.07
2023-05-11T04:13:40.251Z,11.01
2023-05-11T04:16:41.942Z,10.79
2023-05-11T04:19:43.431Z,10.87
2023-05-11T04:22:44.877Z,10.94
2023-05-11T04:25:46.316Z,11.09
2023-05-11T04:28:47.690Z,11.01
2023-05-11T04:31:49.511Z,11.06
2023-05-11T04:34:51.149Z,11.11
2023-05-11T04:37:56.566Z,11.16
2023-05-11T04:41:02.231Z,11.18
2023-05-11T04:44:03.896Z,10.93
2023-05-11T04:47:05.514Z,10.91
2023-05-11T04:50:07.319Z,11.03
2023-05-11T04:53:11.065Z,11.06
2023-05-11T04:56:13.131Z,10.95
2023-05-11T04:59:14.825Z,10.96
2023-05-11T05:02:16.364Z,10.86
2023-05-11T05:05:18.179Z,10.89
2023-05-11T05:08:20.406Z,11.03
2023-05-11T05:11:24.087Z,11.09
2023-05-11T05:14:25.586Z,11.04
2023-05-11T05:17:27.073Z,11.07
2023-05-11T05:20:28.704Z,11.10
2023-05-11T05:23:30.195Z,11.15
2023-05-11T05:26:31.646Z,10.77
2023-05-11T05:29:33.445Z,10.81
2023-05-11T05:32:35.338Z,10.99
2023-05-11T05:35:36.820Z,10.89
2023-05-11T05:38:39.093Z,10.94
2023-05-11T05:41:42.462Z,10.92
2023-05-11T05:44:44.772Z,10.51
2023-05-11T05:47:47.125Z,10.75
2023-05-11T05:50:48.868Z,11.03
2023-05-11T05:53:50.410Z,11.14
2023-05-11T05:56:51.981Z,11.23
2023-05-11T05:59:55.845Z,11.26
2023-05-11T06:02:57.526Z,11.15
2023-05-11T06:06:04.234Z,11.24
2023-05-11T06:09:06.369Z,11.06
2023-05-11T06:12:09.261Z,11.18
2023-05-11T06:15:14.576Z,11.24
2023-05-11T06:18:20.478Z,11.16
2023-05-11T06:21:22.557Z,11.10
2023-05-11T06:24:24.043Z,10.89
2023-05-11T06:27:25.506Z,10.96
2023-05-11T06:30:31.222Z,11.04
2023-05-11T06:33:33.588Z,10.94
2023-05-11T06:36:36.100Z,10.98
2023-05-11T06:39:37.657Z,11.16
2023-05-11T06:42:42.561Z,11.35
2023-05-11T06:45:45.786Z,11.51
2023-05-11T06:48:47.475Z,11.44
2023-05-11T06:51:49.064Z,11.21
2023-05-11T06:54:50.910Z,11.19
2023-05-11T06:57:52.319Z,11.33
2023-05-11T07:00:53.846Z,11.45
2023-05-11T07:03:55.310Z,11.65
2023-05-11T07:06:56.842Z,11.42
2023-05-11T07:09:58.335Z,11.64
2023-05-11T07:12:59.730Z,11.57
2023-05-11T07:16:01.338Z,11.61
2023-05-11T07:19:03.350Z,11.57
2023-05-11T07:22:05.799Z,11.52
2023-05-11T07:25:09.628Z,11.71
2023-05-11T07:28:11.193Z,11.51
2023-05-11T07:31:12.720Z,11.45
2023-05-11T07:34:14.410Z,11.26
2023-05-11T07:37:16.031Z,11.05
2023-05-11T07:43:18.952Z,11.64
2023-05-11T07:46:20.518Z,11.67
2023-05-11T07:49:31.101Z,11.23
2023-05-11T07:52:41.506Z,11.06
2023-05-11T07:55:43.183Z,11.12
2023-05-11T07:58:44.653Z,11.21
2023-05-11T08:01:46.115Z,11.43
2023-05-11T08:04:47.542Z,11.15
2023-05-11T08:07:49.122Z,11.58
2023-05-11T08:10:50.564Z,11.75
2023-05-11T08:13:52.173Z,11.70
2023-05-11T08:16:53.783Z,11.72
2023-05-11T08:19:55.223Z,11.35
2023-05-11T08:22:56.635Z,11.53
2023-05-11T08:25:58.037Z,11.47
2023-05-11T08:28:59.445Z,11.59
2023-05-11T08:32:01.014Z,11.38
2023-05-11T08:35:04.256Z,11.66
2023-05-11T08:38:06.544Z,11.88
2023-05-11T08:41:08.578Z,12.01
2023-05-11T08:44:10.966Z,11.86
2023-05-11T08:50:17.059Z,11.76
2023-05-11T08:53:18.531Z,11.70
2023-05-11T08:56:22.375Z,11.58
2023-05-11T08:59:27.557Z,11.08
2023-05-11T09:02:29.335Z,10.71
2023-05-11T09:05:32.473Z,10.44
2023-05-11T09:08:37.734Z,10.39
2023-05-11T09:11:39.636Z,10.37
2023-05-11T09:14:41.329Z,10.52
2023-05-11T09:17:42.862Z,10.41
2023-05-11T09:20:44.725Z,10.55
2023-05-11T09:23:49.705Z,10.45
2023-05-11T09:27:06.640Z,10.55
2023-05-11T09:33:25.492Z,10.54
2023-05-11T09:36:26.911Z,10.84
2023-05-11T09:39:43.921Z,10.84
2023-05-11T09:42:57.612Z,10.47
2023-05-11T09:46:04.701Z,10.76
2023-05-11T09:49:07.294Z,10.63
2023-05-11T09:52:12.961Z,10.96
2023-05-11T09:55:14.361Z,11.37
2023-05-11T09:58:16.192Z,10.97
2023-05-11T10:01:27.573Z,10.94
2023-05-11T10:04:29.834Z,11.13
2023-05-11T10:07:33.510Z,10.79
2023-05-11T10:10:35.320Z,10.74
2023-05-11T10:13:38.070Z,10.75
2023-05-11T10:16:43.698Z,10.57
2023-05-11T10:19:47.360Z,10.64
2023-05-11T10:22:51.450Z,10.66
2023-05-11T10:25:54.022Z,10.59
2023-05-11T10:28:55.890Z,10.64
2023-05-11T10:31:58.406Z,10.76
2023-05-11T10:35:00.158Z,10.89
2023-05-11T10:38:01.670Z,11.04
2023-05-11T10:41:23.777Z,11.32
2023-05-11T10:44:49.938Z,11.13
2023-05-11T10:47:57.460Z,11.07
2023-05-11T10:51:14.142Z,10.99
2023-05-11T10:54:32.002Z,10.98
2023-05-11T10:57:44.993Z,10.94
2023-05-11T11:01:20.673Z,11.01
2023-05-11T11:04:23.357Z,11.13
2023-05-11T11:07:24.978Z,11.26
2023-05-11T11:10:41.307Z,11.22
2023-05-11T11:13:56.920Z,11.12
2023-05-11T11:17:36.687Z,11.27
2023-05-11T11:20:52.687Z,11.31
2023-05-11T11:23:54.327Z,11.16
2023-05-11T11:26:55.880Z,11.23
2023-05-11T11:30:18.540Z,11.17
2023-05-11T11:33:20.003Z,11.33
2023-05-11T11:36:55.409Z,11.36
2023-05-11T11:40:13.040Z,11.72
2023-05-11T11:43:19.715Z,11.38
2023-05-11T11:46:29.083Z,11.31
2023-05-11T11:49:31.478Z,11.46
2023-05-11T11:52:35.975Z,11.31
2023-05-11T11:55:51.042Z,11.41
2023-05-11T11:58:52.470Z,11.44
2023-05-11T12:01:56.135Z,11.48
2023-05-11T12:05:01.001Z,11.76
2023-05-11T12:08:06.886Z,11.68
2023-05-11T12:11:08.507Z,11.84
2023-05-11T12:14:12.309Z,11.72
2023-05-11T12:17:15.436Z,11.70
2023-05-11T12:20:18.704Z,11.76
2023-05-11T12:23:20.717Z,11.69
2023-05-11T12:26:24.191Z,11.76
2023-05-11T12:29:25.958Z,12.04
2023-05-11T12:32:29.476Z,12.11
2023-05-11T12:35:32.882Z,11.55
2023-05-11T12:38:34.227Z,11.72
2023-05-11T12:41:35.667Z,11.72
2023-05-11T12:44:37.163Z,11.81
2023-05-11T12:47:38.758Z,11.87
2023-05-11T12:50:46.473Z,11.66
2023-05-11T12:53:47.875Z,11.95
2023-05-11T12:56:49.378Z,11.80
2023-05-11T13:00:06.013Z,12.05
2023-05-11T13:03:10.190Z,12.15
2023-05-11T13:06:13.130Z,12.13
2023-05-11T13:09:27.676Z,12.03
2023-05-11T13:12:31.961Z,12.09
2023-05-11T13:15:34.359Z,12.30
2023-05-11T13:18:36.032Z,12.61
2023-05-11T13:21:38.139Z,12.47
2023-05-11T13:24:39.647Z,12.38
2023-05-11T13:27:41.606Z,12.49
2023-05-11T13:30:43.843Z,12.19
2023-05-11T13:33:52.212Z,12.37
2023-05-11T13:36:53.663Z,12.49
2023-05-11T13:39:55.478Z,12.56
2023-05-11T13:42:56.913Z,12.46
2023-05-11T13:45:58.595Z,12.46
2023-05-11T13:49:00.764Z,12.71
2023-05-11T13:52:02.242Z,12.88
2023-05-11T13:55:03.851Z,12.70
2023-05-11T13:58:06.056Z,12.72
2023-05-11T14:01:08.541Z,12.59
2023-05-11T14:04:10.257Z,12.90
2023-05-11T14:07:11.697Z,12.98
2023-05-11T14:10:13.739Z,12.89
2023-05-11T14:13:15.602Z,12.47
2023-05-11T14:16:18.476Z,12.44
2023-05-11T14:19:20.077Z,12.71
2023-05-11T14:22:21.575Z,12.76
2023-05-11T14:25:23.490Z,13.04
2023-05-11T14:28:25.031Z,13.30
2023-05-11T14:31:26.825Z,12.91
2023-05-11T14:34:28.322Z,12.81
2023-05-11T14:37:29.742Z,12.96
2023-05-11T14:40:31.441Z,12.93
2023-05-11T14:43:32.871Z,12.84
2023-05-11T14:46:34.400Z,12.98
2023-05-11T14:49:36.209Z,13.07
2023-05-11T14:52:37.692Z,13.26
2023-05-11T14:55:39.124Z,13.35
2023-05-11T14:58:41.552Z,13.18
2023-05-11T15:01:43.240Z,13.01
2023-05-11T15:04:44.717Z,13.21
2023-05-11T15:07:46.303Z,13.68
2023-05-11T15:10:48.300Z,13.16
2023-05-11T15:13:49.739Z,13.18
2023-05-11T15:16:52.282Z,12.83
2023-05-11T15:19:53.854Z,13.18
2023-05-11T15:22:55.251Z,13.35
2023-05-11T15:25:58.562Z,13.38
2023-05-11T15:29:00.016Z,13.45
2023-05-11T15:32:01.850Z,13.54
2023-05-11T15:35:03.999Z,13.96
2023-05-11T15:38:05.981Z,13.85
2023-05-11T15:41:07.778Z,13.22
2023-05-11T15:44:09.336Z,13.34
2023-05-11T15:47:10.902Z,13.15
2023-05-11T15:50:12.949Z,13.10
2023-05-11T15:53:14.517Z,13.30
2023-05-11T15:56:15.948Z,13.72
2023-05-11T15:59:17.369Z,13.48
2023-05-11T16:02:18.915Z,13.49
2023-05-11T16:05:20.548Z,13.62
2023-05-11T16:08:22.127Z,13.41
2023-05-11T16:11:23.606Z,13.32
2023-05-11T16:14:25.148Z,13.57
2023-05-11T16:17:27.185Z,13.69
2023-05-11T16:20:30.225Z,13.59
2023-05-11T16:23:32.015Z,13.43
2023-05-11T16:26:33.966Z,13.61
2023-05-11T16:29:36.285Z,13.32
2023-05-11T16:32:37.783Z,13.30
2023-05-11T16:35:39.418Z,13.15
2023-05-11T16:38:41.129Z,13.24
2023-05-11T16:41:42.584Z,13.23
2023-05-11T16:44:44.026Z,13.09
2023-05-11T16:47:46.084Z,13.18
2023-05-11T16:50:47.700Z,13.00
2023-05-11T16:53:49.280Z,12.99
2023-05-11T16:56:50.879Z,13.07
2023-05-11T16:59:52.857Z,12.99
2023-05-11T17:02:54.547Z,13.03
2023-05-11T17:05:56.461Z,13.00
2023-05-11T17:08:57.944Z,12.87
2023-05-11T17:11:59.388Z,12.88
2023-05-11T17:15:01.128Z,12.95
2023-05-11T17:18:03.989Z,12.77
2023-05-11T17:21:05.880Z,12.77
2023-05-11T17:24:07.772Z,12.75
2023-05-11T17:27:09.352Z,12.71
2023-05-11T17:30:11.208Z,12.75
2023-05-11T17:33:12.956Z,12.79
2023-05-11T17:36:14.641Z,12.56
2023-05-11T17:39:17.150Z,12.55
2023-05-11T17:42:20.081Z,12.25
2023-05-11T17:45:21.774Z,12.31
2023-05-11T17:48:24.113Z,12.19
2023-05-11T17:51:25.625Z,12.20
2023-05-11T17:54:29.783Z,12.21
2023-05-11T17:57:31.467Z,12.13
2023-05-11T18:00:34.052Z,12.19
2023-05-11T18:03:35.780Z,12.12
2023-05-11T18:06:37.324Z,11.91
2023-05-11T18:09:38.877Z,11.45
2023-05-11T18:12:40.337Z,11.30
2023-05-11T18:15:42.872Z,11.51
2023-05-11T18:18:44.969Z,11.67
2023-05-11T18:21:46.578Z,11.58
2023-05-11T18:24:48.263Z,11.25
2023-05-11T18:27:50.492Z,11.09
2023-05-11T18:30:52.358Z,11.17
2023-05-11T18:33:55.107Z,11.20
2023-05-11T18:36:59.247Z,11.18
2023-05-11T18:40:02.818Z,11.11
2023-05-11T18:43:05.888Z,11.23
2023-05-11T18:46:08.836Z,11.47
2023-05-11T18:49:10.542Z,11.43
2023-05-11T18:52:14.655Z,11.15
2023-05-11T18:55:17.403Z,11.10
2023-05-11T18:58:20.420Z,11.10
2023-05-11T19:01:27.872Z,11.03
2023-05-11T19:04:35.086Z,10.74
2023-05-11T19:07:36.728Z,10.87
2023-05-11T19:10:40.344Z,10.88
2023-05-11T19:13:43.384Z,10.77
2023-05-11T19:16:45.074Z,10.94
2023-05-11T19:19:46.576Z,10.81
2023-05-11T19:22:48.131Z,10.64
2023-05-11T19:25:49.868Z,10.93
2023-05-11T19:28:51.645Z,11.20
2023-05-11T19:31:53.586Z,11.10
2023-05-11T19:34:55.311Z,10.96
2023-05-11T19:37:56.865Z,10.88
2023-05-11T19:40:58.473Z,10.80
2023-05-11T19:44:02.859Z,10.92
2023-05-11T19:47:04.529Z,11.01
2023-05-11T19:50:08.660Z,11.02
2023-05-11T19:53:10.340Z,10.76
2023-05-11T19:56:11.892Z,10.85
2023-05-11T19:59:13.405Z,10.87
2023-05-11T20:02:14.889Z,10.95
2023-05-11T20:05:16.742Z,10.91
2023-05-11T20:08:18.288Z,10.90
2023-05-11T20:11:20.079Z,10.48
2023-05-11T20:14:21.606Z,10.82
2023-05-11T20:17:24.199Z,10.76
2023-05-11T20:20:25.699Z,10.74
2023-05-11T20:23:27.378Z,10.59
2023-05-11T20:26:29.225Z,10.85
2023-05-11T20:29:30.634Z,10.47
2023-05-11T20:32:32.056Z,10.55
2023-05-11T20:35:34.056Z,10.37
2023-05-11T20:38:35.697Z,10.70
2023-05-11T20:41:37.186Z,10.49
2023-05-11T20:44:38.758Z,10.68
2023-05-11T20:47:40.239Z,10.79
2023-05-11T20:50:41.762Z,10.97
2023-05-11T20:53:43.162Z,10.65
2023-05-11T20:56:44.669Z,10.54
2023-05-11T21:02:50.501Z,10.64
2023-05-11T21:05:51.937Z,10.53
2023-05-11T21:08:55.342Z,10.33
2023-05-11T21:11:56.828Z,10.38
2023-05-11T21:14:58.271Z,10.61
2023-05-11T21:18:01.813Z,10.81
2023-05-11T21:21:04.424Z,10.88
2023-05-11T21:24:06.171Z,11.08
2023-05-11T21:27:07.688Z,11.13
2023-05-11T21:30:09.851Z,10.86
2023-05-11T21:33:11.880Z,10.55
2023-05-11T21:36:13.482Z,10.12
2023-05-11T21:39:15.039Z,10.50
2023-05-11T21:42:16.650Z,10.32
2023-05-11T21:45:19.745Z,10.82
2023-05-11T21:48:21.820Z,10.93
2023-05-11T21:51:23.440Z,10.58
2023-05-11T21:54:25.176Z,10.54
2023-05-11T21:57:26.778Z,10.57
2023-05-11T22:00:28.301Z,10.68
2023-05-11T22:03:31.660Z,10.47
2023-05-11T22:06:33.339Z,10.78
2023-05-11T22:09:34.789Z,10.52
2023-05-11T22:12:36.344Z,10.24
2023-05-11T22:15:38.130Z,10.45
2023-05-11T22:18:39.630Z,10.25
2023-05-11T22:21:41.125Z,10.29
2023-05-11T22:24:42.585Z,10.44
2023-05-11T22:27:44.512Z,10.47
2023-05-11T22:30:46.146Z,10.23
2023-05-11T22:33:47.641Z,10.35
2023-05-11T22:36:49.103Z,10.26
2023-05-11T22:39:50.596Z,10.62
2023-05-11T22:42:52.100Z,10.48
2023-05-11T22:45:53.581Z,10.07
2023-05-11T22:48:54.998Z,10.57
2023-05-11T22:51:58.688Z,10.80
2023-05-11T22:55:00.258Z,10.49
2023-05-11T22:58:01.716Z,10.27
2023-05-11T23:01:03.496Z,10.63
2023-05-11T23:04:05.145Z,10.29
2023-05-11T23:07:07.848Z,10.11
2023-05-11T23:10:09.848Z,10.16
2023-05-11T23:13:11.489Z,10.05
2023-05-11T23:16:13.005Z,9.99
2023-05-11T23:19:14.495Z,9.87
2023-05-11T23:22:15.907Z,9.74
2023-05-11T23:25:17.480Z,9.82
2023-05-11T23:28:19.977Z,9.91
2023-05-11T23:31:21.443Z,10.48
2023-05-11T23:34:22.920Z,10.67
2023-05-11T23:37:24.515Z,10.51
2023-05-11T23:40:27.234Z,10.16
2023-05-11T23:43:28.838Z,10.42
2023-05-11T23:46:30.363Z,10.55
2023-05-11T23:49:32.055Z,10.21
2023-05-11T23:52:33.466Z,10.52
2023-05-11T23:55:34.975Z,10.71
2023-05-11T23:58:36.434Z,10.71
